Time;durP1;ratioP1;P1;durP2;ratioP2;P2;SDS_P1;SDS_P2;PMS_P1;PMS_P2;Temp;Humidity;BMP_temperature;BMP_pressure;BME280_temperature;BME280_humidity;BME280_pressure;Samples;Min_cycle;Max_cycle;Signal;HPM_P1;HPM_P2
2022/05/17 00:00:28;;;;;;;12.70;6.53;;;;;;;14.91;83.55;101300.97;4955051;28;20093;-79
2022/05/17 00:02:57;;;;;;;13.57;6.93;;;;;;;14.91;83.52;101300.97;4957074;28;20061;-79
2022/05/17 00:05:24;;;;;;;10.15;6.20;;;;;;;14.98;83.12;101298.50;4953871;28;20055;-79
2022/05/17 00:07:50;;;;;;;12.38;7.38;;;;;;;14.97;83.05;101302.13;4954482;28;20051;-75
2022/05/17 00:10:17;;;;;;;12.30;6.45;;;;;;;14.86;83.43;101294.56;4956760;28;20115;-79
2022/05/17 00:12:44;;;;;;;10.27;6.55;;;;;;;14.83;83.32;101295.72;4973316;28;20066;-77
2022/05/17 00:15:11;;;;;;;10.38;6.50;;;;;;;14.82;83.61;101296.72;4971514;28;20054;-78
2022/05/17 00:17:38;;;;;;;13.15;6.40;;;;;;;14.81;83.66;101292.44;4967937;28;20134;-78
2022/05/17 00:20:07;;;;;;;11.15;6.55;;;;;;;14.80;83.91;101298.69;4956247;28;20055;-78
2022/05/17 00:22:34;;;;;;;15.60;6.60;;;;;;;14.79;83.81;101294.41;4957691;28;20051;-79
2022/05/17 00:25:02;;;;;;;13.90;6.75;;;;;;;14.74;84.18;101294.06;4974023;28;20048;-78
2022/05/17 00:27:28;;;;;;;11.50;7.07;;;;;;;14.62;83.82;101290.16;4977121;28;20051;-77
2022/05/17 00:29:55;;;;;;;10.88;6.80;;;;;;;14.64;84.71;101298.72;4977188;28;20051;-76
2022/05/17 00:32:22;;;;;;;13.30;6.55;;;;;;;14.67;84.26;101287.00;4979088;28;20047;-79
2022/05/17 00:34:48;;;;;;;19.50;7.10;;;;;;;14.59;84.45;101282.59;4969247;28;20083;-77
2022/05/17 00:37:17;;;;;;;11.93;7.20;;;;;;;14.54;84.88;101283.09;4963448;28;20146;-78
2022/05/17 00:39:43;;;;;;;15.90;7.07;;;;;;;14.61;84.01;101280.63;4959845;28;20055;-79
2022/05/17 00:42:10;;;;;;;16.70;7.50;;;;;;;14.57;83.96;101274.03;4966405;28;20081;-78
2022/05/17 00:44:46;;;;;;;11.80;6.97;;;;;;;14.49;84.39;101279.31;4970882;28;20108;-79
2022/05/17 00:47:16;;;;;;;22.08;7.50;;;;;;;14.57;84.01;101277.50;4971704;28;20052;-79
2022/05/17 00:49:46;;;;;;;13.65;7.18;;;;;;;14.58;83.88;101268.59;4971493;28;20544;-79
2022/05/17 00:52:15;;;;;;;13.52;7.13;;;;;;;14.56;84.17;101272.38;4958292;28;20047;-79
2022/05/17 00:54:44;;;;;;;13.15;7.30;;;;;;;14.55;84.01;101268.94;4948917;28;20562;-78
2022/05/17 00:57:19;;;;;;;15.77;7.38;;;;;;;14.52;83.88;101268.44;4937466;29;20087;-79
2022/05/17 00:59:46;;;;;;;16.10;7.57;;;;;;;14.50;83.53;101270.41;4937580;29;20094;-79
2022/05/17 01:02:13;;;;;;;18.05;7.55;;;;;;;14.56;83.13;101269.75;4938416;29;20676;-80
2022/05/17 01:04:41;;;;;;;16.13;7.28;;;;;;;14.52;83.51;101271.91;4957643;29;20042;-81
2022/05/17 01:07:10;;;;;;;15.85;7.10;;;;;;;14.45;83.79;101270.09;4946125;29;20058;-80
2022/05/17 01:09:37;;;;;;;12.13;7.63;;;;;;;14.49;84.04;101271.41;4949724;29;20146;-81
2022/05/17 01:12:06;;;;;;;13.40;7.15;;;;;;;14.49;84.03;101274.03;4958901;29;20063;-79
2022/05/17 01:17:17;;;;;;;12.50;7.32;;;;;;;14.40;84.32;101275.00;4939852;29;20434;-79
2022/05/17 01:19:44;;;;;;;11.55;7.35;;;;;;;14.30;84.50;101275.16;4939119;29;20183;-79
2022/05/17 01:22:12;;;;;;;12.98;7.43;;;;;;;14.12;85.18;101274.50;4940703;29;20055;-79
2022/05/17 01:24:40;;;;;;;12.15;7.40;;;;;;;13.99;85.79;101279.41;4937588;29;20477;-78
2022/05/17 01:27:13;;;;;;;12.13;7.43;;;;;;;14.01;86.25;101274.81;4940591;29;20047;-78
2022/05/17 01:29:42;;;;;;;13.25;7.68;;;;;;;13.95;86.57;101282.38;4937183;29;20087;-78
2022/05/17 01:32:11;;;;;;;10.05;7.57;;;;;;;13.89;87.27;101276.94;4940435;29;20517;-80
2022/05/17 01:34:38;;;;;;;12.93;7.63;;;;;;;13.87;86.64;101286.78;4940942;29;20485;-79
2022/05/17 01:37:06;;;;;;;17.42;8.27;;;;;;;13.82;87.36;101281.19;4940153;29;20142;-80
2022/05/17 01:39:35;;;;;;;11.30;7.18;;;;;;;13.91;87.46;101281.03;4939323;29;20054;-80
2022/05/17 01:42:03;;;;;;;14.02;7.90;;;;;;;13.81;87.57;101283.00;4939539;29;20134;-80
2022/05/17 01:44:29;;;;;;;12.52;7.10;;;;;;;13.66;88.28;101275.91;4941682;29;20126;-80
2022/05/17 01:46:56;;;;;;;12.32;7.40;;;;;;;13.64;88.04;101267.34;4942124;29;20050;-81
2022/05/17 01:49:23;;;;;;;16.98;8.57;;;;;;;13.74;87.90;101268.00;4941496;29;20502;-81
2022/05/17 01:51:49;;;;;;;10.75;7.57;;;;;;;13.69;88.09;101270.34;4941622;29;20138;-80
2022/05/17 01:54:16;;;;;;;12.60;7.88;;;;;;;13.54;89.32;101263.06;4940786;29;20099;-81
2022/05/17 01:56:44;;;;;;;11.00;7.15;;;;;;;13.58;88.59;101269.63;4940332;29;20079;-81
2022/05/17 01:59:12;;;;;;;13.13;7.05;;;;;;;13.54;88.91;101272.75;4940092;29;20435;-80
2022/05/17 02:01:39;;;;;;;14.07;7.63;;;;;;;13.45;88.99;101266.63;4940031;29;20051;-81
2022/05/17 02:04:06;;;;;;;12.30;7.78;;;;;;;13.47;88.80;101261.22;4939563;29;20063;-80
2022/05/17 02:06:33;;;;;;;12.70;7.60;;;;;;;13.48;88.96;101266.31;4939574;29;20142;-81
2022/05/17 02:09:00;;;;;;;13.90;8.10;;;;;;;13.39;89.96;101264.63;4939559;29;20111;-81
2022/05/17 02:11:26;;;;;;;13.50;7.90;;;;;;;13.33;89.90;101274.97;4938959;29;20114;-80
2022/05/17 02:13:54;;;;;;;12.68;8.25;;;;;;;13.31;89.90;101272.47;4957917;23;20463;-80
2022/05/17 02:16:21;;;;;;;10.88;7.97;;;;;;;13.28;90.37;101278.06;4964067;28;20086;-80
2022/05/17 02:18:48;;;;;;;16.23;7.72;;;;;;;13.30;90.02;101286.59;4968061;28;20131;-80
2022/05/17 02:21:14;;;;;;;15.02;8.57;;;;;;;13.25;90.15;101294.13;4960258;28;20118;-81
2022/05/17 02:23:41;;;;;;;14.43;8.10;;;;;;;13.25;90.42;101291.50;4959954;28;20051;-81
2022/05/17 02:26:08;;;;;;;15.15;8.43;;;;;;;13.20;90.21;101288.56;4959408;28;20135;-80
2022/05/17 02:28:35;;;;;;;16.80;7.97;;;;;;;13.10;90.62;101280.75;4959409;28;20071;-80
2022/05/17 02:31:03;;;;;;;13.10;8.50;;;;;;;13.13;90.54;101282.25;4960057;28;20119;-82
2022/05/17 02:33:30;;;;;;;18.13;8.13;;;;;;;13.19;90.15;101286.91;4959859;28;20082;-81
2022/05/17 02:35:56;;;;;;;13.40;8.40;;;;;;;13.15;90.15;101283.72;4959119;28;20138;-81
2022/05/17 02:38:23;;;;;;;11.45;7.55;;;;;;;13.16;90.26;101289.84;4958726;28;20051;-81
2022/05/17 02:40:49;;;;;;;13.23;8.57;;;;;;;13.13;90.25;101292.75;4959843;28;20449;-80
2022/05/17 02:43:16;;;;;;;17.67;8.65;;;;;;;13.10;90.61;101293.06;4959020;28;20111;-81
2022/05/17 02:45:43;;;;;;;13.63;9.05;;;;;;;13.06;90.71;101283.84;4958823;28;20120;-81
2022/05/17 02:48:11;;;;;;;10.95;8.52;;;;;;;13.07;90.69;101293.38;4960538;28;20163;-80
2022/05/17 02:50:37;;;;;;;15.05;9.65;;;;;;;13.09;90.92;101299.28;4960419;28;20707;-81
2022/05/17 02:53:04;;;;;;;15.20;8.43;;;;;;;13.07;91.06;101296.81;4959915;28;20138;-80
2022/05/17 02:55:31;;;;;;;16.65;8.88;;;;;;;13.02;91.10;101300.91;4960368;28;20043;-80
2022/05/17 02:57:58;;;;;;;18.50;8.77;;;;;;;12.95;91.51;101298.06;4958797;28;20141;-81
2022/05/17 03:00:26;;;;;;;16.25;9.15;;;;;;;13.00;91.81;101305.47;4958763;28;20143;-80
2022/05/17 03:02:53;;;;;;;14.95;9.38;;;;;;;12.96;92.14;101310.22;4959575;28;20071;-81
2022/05/17 03:05:21;;;;;;;16.15;9.27;;;;;;;13.03;92.27;101311.25;4959987;28;20083;-79
2022/05/17 03:07:48;;;;;;;14.25;9.13;;;;;;;12.99;92.29;101319.59;4959236;28;20158;-79
2022/05/17 03:10:15;;;;;;;14.30;8.30;;;;;;;12.98;92.82;101315.31;4958192;28;20134;-79
2022/05/17 03:12:42;;;;;;;16.77;9.38;;;;;;;12.91;93.02;101313.31;4955421;28;20076;-80
2022/05/17 03:15:17;;;;;;;15.85;8.73;;;;;;;12.95;92.91;101313.81;4955905;28;20051;-79
2022/05/17 03:17:44;;;;;;;13.18;9.02;;;;;;;12.99;92.57;101325.66;4958036;28;20119;-80
2022/05/17 03:20:11;;;;;;;16.27;8.98;;;;;;;12.94;93.33;101320.88;4956785;28;20082;-81
2022/05/17 03:22:39;;;;;;;24.25;9.48;;;;;;;12.89;92.78;101311.81;4958602;28;20445;-80
2022/05/17 03:25:07;;;;;;;16.08;9.00;;;;;;;12.88;92.56;101313.63;4962389;28;20106;-80
2022/05/17 03:27:34;;;;;;;14.68;9.40;;;;;;;12.86;93.00;101320.81;4961488;28;20126;-80
2022/05/17 03:30:00;;;;;;;19.60;9.27;;;;;;;12.80;93.36;101317.97;4961538;28;20138;-80
2022/05/17 03:32:27;;;;;;;16.00;9.00;;;;;;;12.84;93.17;101321.94;4965120;28;20066;-80
2022/05/17 03:34:53;;;;;;;14.27;10.13;;;;;;;12.79;93.34;101332.91;4968450;28;20051;-79
2022/05/17 03:37:20;;;;;;;17.13;9.18;;;;;;;12.73;93.49;101330.94;4969148;28;20079;-79
2022/05/17 03:39:51;;;;;;;17.90;9.98;;;;;;;12.76;93.63;101325.34;4967106;28;20527;-80
2022/05/17 03:42:20;;;;;;;15.18;9.40;;;;;;;12.81;93.24;101322.25;4968839;28;20115;-79
2022/05/17 03:44:47;;;;;;;18.65;9.65;;;;;;;12.78;93.15;101322.56;4964493;28;20071;-79
2022/05/17 03:47:13;;;;;;;16.75;9.50;;;;;;;12.86;92.79;101320.00;4960090;28;20154;-79
2022/05/17 03:49:40;;;;;;;18.88;8.82;;;;;;;12.99;92.73;101325.66;4961808;28;20151;-79
2022/05/17 03:52:08;;;;;;;14.38;8.98;;;;;;;12.88;92.55;101329.38;4961231;28;20047;-79
2022/05/17 03:54:36;;;;;;;16.23;9.45;;;;;;;12.79;92.97;101324.22;4962180;28;20051;-78
2022/05/17 03:57:04;;;;;;;15.00;9.63;;;;;;;12.93;92.69;101328.91;4965204;28;20047;-79
2022/05/17 03:59:31;;;;;;;15.50;8.68;;;;;;;12.98;92.62;101329.28;4963734;28;20157;-77
2022/05/17 04:01:58;;;;;;;12.10;8.82;;;;;;;13.17;92.06;101336.16;4961325;28;20098;-79
2022/05/17 04:04:25;;;;;;;20.20;9.27;;;;;;;13.49;90.21;101331.06;4961963;28;20054;-80
2022/05/17 04:06:52;;;;;;;16.23;8.43;;;;;;;13.64;89.60;101338.34;4961495;28;20090;-80
2022/05/17 04:09:21;;;;;;;12.77;8.52;;;;;;;13.80;88.57;101339.22;4963063;28;20059;-80
2022/05/17 04:11:47;;;;;;;11.85;8.30;;;;;;;13.95;87.94;101345.53;4965417;28;20528;-80
2022/05/17 04:14:15;;;;;;;14.48;8.65;;;;;;;14.19;87.80;101343.91;4965457;28;20066;-80
2022/05/17 04:16:42;;;;;;;14.32;8.65;;;;;;;14.43;86.93;101337.88;4962376;28;20078;-79
2022/05/17 04:19:09;;;;;;;12.55;8.13;;;;;;;14.57;85.96;101342.50;4961359;28;20055;-79
2022/05/17 04:21:36;;;;;;;14.00;8.05;;;;;;;14.71;85.10;101347.09;4961231;28;20090;-79
2022/05/17 04:24:03;;;;;;;16.10;7.93;;;;;;;14.49;85.27;101343.31;4961600;28;20102;-79
2022/05/17 04:26:30;;;;;;;16.15;7.47;;;;;;;14.40;85.93;101346.09;4961636;28;20047;-79
2022/05/17 04:28:56;;;;;;;11.45;7.85;;;;;;;14.39;85.96;101347.06;4960892;28;20047;-79
2022/05/17 04:31:25;;;;;;;11.75;8.00;;;;;;;14.28;86.39;101335.88;4963867;28;20079;-79
2022/05/17 04:33:52;;;;;;;16.65;7.97;;;;;;;14.11;87.04;101331.59;4961140;28;20138;-80
2022/05/17 04:36:18;;;;;;;19.75;8.90;;;;;;;14.01;87.58;101333.53;4960594;28;20048;-79
2022/05/17 04:38:45;;;;;;;13.13;8.68;;;;;;;13.92;88.59;101342.38;4961289;28;20047;-81
2022/05/17 04:41:12;;;;;;;11.63;8.43;;;;;;;14.04;88.09;101338.47;4962174;28;20160;-80
2022/05/17 04:43:39;;;;;;;13.63;8.50;;;;;;;13.97;88.71;101337.47;4962418;28;20137;-80
2022/05/17 04:46:06;;;;;;;11.23;8.52;;;;;;;14.14;88.48;101346.22;4962361;28;20059;-80
2022/05/17 04:48:34;;;;;;;17.65;8.75;;;;;;;14.38;88.02;101334.88;4961216;28;20117;-80
2022/05/17 04:51:00;;;;;;;13.73;8.73;;;;;;;14.57;87.79;101358.31;4961624;28;20126;-80
2022/05/17 04:53:28;;;;;;;14.50;8.93;;;;;;;14.78;87.12;101347.25;4961783;28;20505;-79
2022/05/17 04:55:54;;;;;;;17.33;8.52;;;;;;;14.78;86.89;101344.63;4960893;28;20051;-80
2022/05/17 04:58:21;;;;;;;16.02;9.43;;;;;;;14.87;86.33;101356.81;4960272;28;20214;-79
2022/05/17 05:00:48;;;;;;;13.95;9.10;;;;;;;14.94;86.52;101352.53;4959082;28;20061;-79
2022/05/17 05:03:15;;;;;;;13.45;9.00;;;;;;;14.87;86.25;101352.34;4958236;28;20134;-78
2022/05/17 05:05:43;;;;;;;18.80;9.68;;;;;;;14.87;86.95;101348.91;4956894;28;20049;-79
2022/05/17 05:08:10;;;;;;;12.15;8.50;;;;;;;15.07;86.71;101352.00;4958200;28;20055;-80
2022/05/17 05:10:36;;;;;;;12.95;9.25;;;;;;;15.14;86.76;101356.41;4958743;28;20138;-78
2022/05/17 05:13:04;;;;;;;19.27;9.98;;;;;;;15.15;87.19;101354.59;4960302;28;20114;-79
2022/05/17 05:15:31;;;;;;;11.25;8.90;;;;;;;15.26;87.00;101355.09;4958982;28;20058;-80
2022/05/17 05:17:58;;;;;;;17.20;9.80;;;;;;;15.31;86.45;101351.94;4959521;28;20055;-79
2022/05/17 05:20:25;;;;;;;16.33;9.13;;;;;;;15.40;85.90;101366.75;4958374;28;20086;-79
2022/05/17 05:22:53;;;;;;;16.15;9.45;;;;;;;15.41;86.04;101360.50;4958249;28;20102;-80
2022/05/17 05:25:20;;;;;;;12.98;8.95;;;;;;;15.44;85.79;101356.69;4958175;28;20109;-79
2022/05/17 05:27:46;;;;;;;14.13;9.85;;;;;;;15.27;86.38;101358.53;4952613;28;20047;-79
2022/05/17 05:30:15;;;;;;;11.85;8.38;;;;;;;15.31;86.08;101365.13;4955718;28;20051;-79
2022/05/17 05:32:42;;;;;;;10.88;8.15;;;;;;;15.41;85.35;101373.66;4958384;28;20138;-79
2022/05/17 05:35:10;;;;;;;13.77;7.47;;;;;;;15.41;84.68;101370.22;4958082;28;20091;-79
2022/05/17 05:37:48;;;;;;;14.88;7.97;;;;;;;15.45;83.60;101364.44;4956634;28;20102;-79
2022/05/17 05:40:17;;;;;;;17.05;7.85;;;;;;;15.45;83.58;101364.44;4957504;28;20059;-78
2022/05/17 05:42:50;;;;;;;12.90;7.78;;;;;;;15.57;83.57;101370.19;4956488;28;20062;-79
2022/05/17 05:45:21;;;;;;;13.60;7.45;;;;;;;15.81;82.69;101377.19;4956591;28;20066;-80
2022/05/17 05:47:48;;;;;;;18.60;8.23;;;;;;;15.83;82.28;101373.38;4957566;28;20050;-78
2022/05/17 05:50:15;;;;;;;18.63;7.85;;;;;;;16.01;80.97;101378.41;4955865;28;20570;-78
2022/05/17 05:52:44;;;;;;;16.80;7.97;;;;;;;16.10;81.23;101384.44;4955245;28;20126;-79
2022/05/17 05:55:18;;;;;;;12.52;7.53;;;;;;;16.24;80.37;101388.97;4954592;28;20051;-79
2022/05/17 05:57:46;;;;;;;15.50;7.57;;;;;;;16.24;79.53;101388.97;4954564;28;20137;-79
2022/05/17 06:00:15;;;;;;;13.13;7.80;;;;;;;16.44;78.72;101384.06;4954876;28;20051;-79
2022/05/17 06:02:42;;;;;;;22.80;7.88;;;;;;;16.35;79.42;101385.13;4955252;28;20055;-78
2022/05/17 06:05:11;;;;;;;27.70;9.15;;;;;;;16.62;77.73;101383.75;4954724;28;20059;-79
2022/05/17 06:07:38;;;;;;;13.40;8.70;;;;;;;17.01;77.06;101392.41;4954896;28;20058;-79
2022/05/17 06:10:06;;;;;;;13.80;8.02;;;;;;;17.22;76.48;101394.31;4942840;28;20056;-79
2022/05/17 06:12:38;;;;;;;22.02;7.68;;;;;;;17.13;76.39;101387.47;4938746;29;20048;-80
2022/05/17 06:15:05;;;;;;;13.77;7.60;;;;;;;17.37;75.98;101384.59;4938050;29;20090;-79
2022/05/17 06:17:33;;;;;;;13.18;7.95;;;;;;;17.28;76.79;101376.91;4937115;29;20506;-78
2022/05/17 06:20:00;;;;;;;20.48;8.68;;;;;;;17.67;74.49;101376.66;4937692;29;20059;-78
2022/05/17 06:22:28;;;;;;;15.52;7.55;;;;;;;18.48;71.67;101372.84;4936086;29;20495;-79
2022/05/17 06:24:54;;;;;;;14.07;8.18;;;;;;;18.41;71.58;101374.66;4936473;29;20419;-77
2022/05/17 06:27:21;;;;;;;14.70;8.18;;;;;;;18.41;71.23;101372.81;4937198;29;20083;-80
2022/05/17 06:29:49;;;;;;;20.77;9.63;;;;;;;17.97;72.64;101383.53;4937354;29;20083;-78
2022/05/17 06:32:17;;;;;;;17.80;8.27;;;;;;;17.86;73.90;101398.09;4938662;29;20222;-79
2022/05/17 06:34:45;;;;;;;18.52;8.95;;;;;;;17.71;73.95;101389.34;4936457;29;20059;-77
2022/05/17 06:37:12;;;;;;;15.40;8.45;;;;;;;18.27;72.79;101384.28;4934806;29;20048;-79
2022/05/17 06:39:39;;;;;;;15.75;8.75;;;;;;;18.45;72.29;101384.66;4937698;29;20053;-79
2022/05/17 06:42:10;;;;;;;18.48;9.40;;;;;;;17.85;74.60;101385.84;4937134;29;20084;-79
2022/05/17 06:44:38;;;;;;;16.27;9.25;;;;;;;18.33;73.41;101388.00;4937483;29;20111;-79
2022/05/17 06:47:07;;;;;;;20.33;9.10;;;;;;;18.39;72.76;101376.66;4936904;29;20055;-79
2022/05/17 06:49:37;;;;;;;12.02;8.88;;;;;;;17.44;75.04;101382.03;4937282;29;20135;-80
2022/05/17 06:52:06;;;;;;;12.00;8.70;;;;;;;17.33;76.46;101385.13;4939756;29;20047;-79
2022/05/17 06:54:33;;;;;;;19.25;9.73;;;;;;;17.56;75.99;101388.50;4939764;29;20134;-80
2022/05/17 06:57:03;;;;;;;20.42;9.02;;;;;;;17.58;76.52;101389.13;4938510;29;20103;-80
2022/05/17 06:59:31;;;;;;;19.65;9.40;;;;;;;17.81;75.12;101395.16;4936270;29;20134;-78
2022/05/17 07:01:59;;;;;;;17.15;8.75;;;;;;;18.38;73.29;101386.44;4936396;29;20086;-78
2022/05/17 07:04:27;;;;;;;14.88;8.10;;;;;;;19.38;69.68;101396.81;4936641;29;20083;-79
2022/05/17 07:06:55;;;;;;;12.85;8.25;;;;;;;20.24;67.76;101404.38;4936467;29;20047;-78
2022/05/17 07:09:23;;;;;;;19.42;8.45;;;;;;;19.99;66.16;101396.13;4937181;29;20140;-79
2022/05/17 07:20:40;;;;;;;20.30;8.25;;;;;;;19.29;67.58;101390.06;4911641;29;20059;-78
2022/05/17 07:23:10;;;;;;;15.07;7.80;;;;;;;19.30;68.46;101386.38;4935031;29;20063;-78
2022/05/17 07:25:40;;;;;;;19.65;7.95;;;;;;;19.80;67.88;101373.81;4934751;29;20157;-78
2022/05/17 07:28:08;;;;;;;13.70;8.23;;;;;;;19.34;68.73;101402.75;4934170;29;20550;-78
2022/05/17 07:30:34;;;;;;;14.25;7.82;;;;;;;19.43;68.44;101406.84;4936878;29;20126;-77
2022/05/17 07:33:01;;;;;;;11.07;8.18;;;;;;;19.80;68.29;101403.00;4937920;29;20047;-79
2022/05/17 07:35:28;;;;;;;16.73;7.80;;;;;;;19.47;68.93;101413.41;4937742;29;20499;-78
2022/05/17 07:37:56;;;;;;;15.25;8.38;;;;;;;19.84;68.59;101412.22;4937978;29;20056;-77
2022/05/17 07:40:23;;;;;;;10.77;7.65;;;;;;;20.44;66.95;101407.91;4938790;29;20057;-78
2022/05/17 07:42:50;;;;;;;13.88;7.43;;;;;;;20.46;65.47;101405.88;4941810;29;20060;-80
2022/05/17 07:45:16;;;;;;;12.52;7.90;;;;;;;20.95;64.96;101410.00;4942359;29;20119;-80
2022/05/17 07:47:43;;;;;;;18.75;8.15;;;;;;;21.55;61.80;101424.06;4941679;29;20047;-79
2022/05/17 07:50:11;;;;;;;13.30;8.43;;;;;;;21.15;61.18;101419.63;4940695;29;20134;-80
2022/05/17 07:52:37;;;;;;;17.90;10.45;;;;;;;20.48;64.16;101415.28;4944175;29;20055;-79
2022/05/17 07:55:07;;;;;;;19.50;8.68;;;;;;;20.69;63.01;101416.16;4946307;29;20476;-79
2022/05/17 07:57:33;;;;;;;14.23;8.60;;;;;;;21.58;60.92;101431.66;4940704;29;20050;-78
2022/05/17 08:00:00;;;;;;;16.95;8.50;;;;;;;21.70;61.03;101419.31;4940024;29;20058;-80
2022/05/17 08:02:27;;;;;;;23.13;8.75;;;;;;;21.45;60.82;101420.00;4941175;29;20525;-78
2022/05/17 08:04:53;;;;;;;13.73;9.10;;;;;;;21.76;60.54;101431.78;4940108;29;20138;-79
2022/05/17 08:07:20;;;;;;;11.93;8.63;;;;;;;22.07;58.36;101434.56;4940631;29;20134;-78
2022/05/17 08:09:47;;;;;;;16.23;9.10;;;;;;;21.00;62.23;101418.19;4940140;29;20060;-79
2022/05/17 08:12:15;;;;;;;16.40;8.57;;;;;;;21.34;60.71;101427.78;4940107;29;20075;-79
2022/05/17 08:14:55;;;;;;;14.30;8.88;;;;;;;21.73;59.07;101410.91;4968804;23;20083;-82
2022/05/17 08:17:27;;;;;;;15.15;9.05;;;;;;;22.48;58.79;101414.66;4960463;28;20055;-83
2022/05/17 08:19:53;;;;;;;17.27;9.93;;;;;;;23.06;57.55;101422.44;4959284;28;20450;-82
2022/05/17 08:22:20;;;;;;;17.55;9.68;;;;;;;22.80;58.36;101416.28;4959555;28;20055;-80
2022/05/17 08:27:32;;;;;;;18.92;9.60;;;;;;;23.37;57.56;101426.84;4963156;29;20114;-81
2022/05/17 08:29:59;;;;;;;17.75;9.43;;;;;;;23.99;56.59;101420.41;4961828;28;20138;-83
2022/05/17 08:35:14;;;;;;;15.13;9.50;;;;;;;23.62;55.00;101426.84;4964467;29;20082;-82
2022/05/17 08:37:41;;;;;;;13.05;9.50;;;;;;;22.65;57.39;101437.09;4962749;28;20134;-83
2022/05/17 08:40:14;;;;;;;17.88;9.73;;;;;;;22.30;58.08;101435.88;4951952;28;20103;-80
2022/05/17 08:42:51;;;;;;;16.92;9.45;;;;;;;22.15;59.52;101431.66;4945538;29;20130;-81
2022/05/17 08:45:23;;;;;;;14.85;9.70;;;;;;;22.63;59.33;101431.16;4946429;29;20057;-78
2022/05/17 08:47:51;;;;;;;;;;;;;;;22.72;58.27;101427.19;4945246;29;20152;-78
2022/05/17 08:50:23;;;;;;;18.73;10.82;;;;;;;22.59;58.98;101432.63;4945199;29;19930;-80
2022/05/17 08:52:50;;;;;;;16.55;9.18;;;;;;;22.65;58.44;101417.63;4951182;29;20074;-81
2022/05/17 08:55:24;;;;;;;17.55;9.15;;;;;;;22.82;58.29;101421.41;4958935;28;20070;-82
2022/05/17 08:57:56;;;;;;;16.85;9.57;;;;;;;23.31;57.06;101425.88;4962746;28;20098;-79
2022/05/17 09:00:24;;;;;;;14.77;9.25;;;;;;;23.94;56.04;101425.63;4957960;29;20486;-82
2022/05/17 09:02:56;;;;;;;13.23;8.77;;;;;;;24.15;54.09;101424.28;4963357;28;20075;-79
2022/05/17 09:05:33;;;;;;;11.82;8.10;;;;;;;24.00;53.53;101424.72;4961732;28;20106;-80
2022/05/17 09:11:59;;;;;;;16.38;8.32;;;;;;;23.78;55.09;101415.53;4908910;29;20132;-82
2022/05/17 09:17:59;;;;;;;14.93;7.90;;;;;;;24.21;53.76;101425.25;4918025;29;20115;-80
2022/05/17 09:20:42;;;;;;;16.25;7.95;;;;;;;24.29;53.99;101403.56;4947531;28;20055;-83
2022/05/17 09:29:12;;;;;;;12.95;8.23;;;;;;;24.32;54.02;101409.28;4964986;28;20087;-82
2022/05/17 09:31:47;;;;;;;13.45;7.00;;;;;;;24.48;53.84;101415.84;4971233;28;20070;-80
2022/05/17 09:34:13;;;;;;;12.10;6.93;;;;;;;24.57;51.18;101425.19;4972061;28;20051;-81
2022/05/17 09:36:44;;;;;;;16.55;6.43;;;;;;;24.19;49.66;101413.97;4971240;28;20585;-83
2022/05/17 09:39:11;;;;;;;12.63;5.78;;;;;;;24.19;47.44;101412.09;4970003;29;20506;-81
2022/05/17 09:41:41;;;;;;;11.77;5.40;;;;;;;24.28;47.87;101404.63;4964743;29;20062;-84
2022/05/17 09:44:12;;;;;;;13.43;6.05;;;;;;;23.88;48.71;101410.47;4964520;28;20116;-83
2022/05/17 09:46:46;;;;;;;14.40;6.85;;;;;;;24.46;50.28;101418.75;4961391;29;20510;-82
2022/05/17 09:54:54;;;;;;;19.65;7.78;;;;;;;24.46;49.10;101410.72;4960249;29;20438;-83
2022/05/17 09:57:23;;;;;;;10.90;6.50;;;;;;;24.41;48.52;101407.09;4961260;29;20058;-82
2022/05/17 09:59:54;;;;;;;12.93;7.45;;;;;;;23.28;50.82;101404.97;4960977;29;20159;-85
2022/05/17 10:02:42;;;;;;;13.27;6.75;;;;;;;23.59;50.11;101405.91;4960665;28;20106;-81
2022/05/17 10:05:28;;;;;;;11.07;6.18;;;;;;;23.90;49.23;101405.72;4961292;28;20044;-84
2022/05/17 10:07:59;;;;;;;14.75;6.57;;;;;;;24.12;49.31;101404.16;4959039;29;20086;-84
2022/05/17 10:10:30;;;;;;;13.73;7.27;;;;;;;23.70;50.00;101397.94;4960677;28;20231;-83
2022/05/17 10:13:04;;;;;;;16.38;6.70;;;;;;;23.83;50.13;101399.63;4960367;29;20058;-83
2022/05/17 10:15:33;;;;;;;9.40;5.78;;;;;;;23.87;48.91;101397.34;4961191;28;20051;-83
2022/05/17 10:18:06;;;;;;;9.20;5.20;;;;;;;24.29;48.03;101392.88;4960713;29;20047;-81
2022/05/17 10:20:40;;;;;;;8.40;4.93;;;;;;;23.95;48.37;101400.50;4964945;29;20090;-84
2022/05/17 10:23:14;;;;;;;9.30;4.97;;;;;;;24.07;48.14;101387.19;4966437;29;20530;-84
2022/05/17 10:25:45;;;;;;;9.07;5.38;;;;;;;24.31;45.39;101382.75;4965979;28;20071;-80
2022/05/17 10:28:20;;;;;;;11.13;5.50;;;;;;;24.05;47.19;101379.41;4956892;29;20094;-80
2022/05/17 10:30:52;;;;;;;10.70;5.05;;;;;;;24.08;47.76;101381.63;4954926;29;20079;-80
2022/05/17 10:33:27;;;;;;;9.48;5.00;;;;;;;24.10;47.91;101382.19;4954668;29;20057;-82
2022/05/17 10:35:59;;;;;;;13.15;5.90;;;;;;;24.41;48.49;101378.50;4959495;29;20146;-84
2022/05/17 10:38:28;;;;;;;8.75;4.70;;;;;;;24.41;46.82;101372.31;4959386;28;20142;-85
2022/05/17 10:40:57;;;;;;;8.90;5.40;;;;;;;24.99;46.01;101371.59;4960144;28;20043;-81
2022/05/17 10:43:28;;;;;;;12.90;5.20;;;;;;;24.51;47.50;101369.91;4959401;28;20078;-82
2022/05/17 10:46:00;;;;;;;16.52;6.00;;;;;;;24.87;46.58;101365.41;4962919;28;20055;-81
2022/05/17 10:48:39;;;;;;;11.55;4.90;;;;;;;24.99;47.04;101364.38;4957871;29;20048;-80
2022/05/17 10:51:12;;;;;;;12.52;4.47;;;;;;;23.97;46.34;101357.53;4968034;28;20051;-80
2022/05/17 10:53:58;;;;;;;6.45;4.00;;;;;;;24.63;46.50;101359.19;4971035;28;20177;-83
2022/05/17 10:56:48;;;;;;;8.82;4.28;;;;;;;24.66;46.07;101356.06;4966703;29;20047;-80
2022/05/17 10:59:26;;;;;;;11.32;4.03;;;;;;;25.08;47.08;101352.25;4959781;29;20047;-82
2022/05/17 11:02:13;;;;;;;10.38;4.47;;;;;;;25.14;44.85;101351.31;4951413;28;20145;-79
2022/05/17 11:05:02;;;;;;;9.20;4.63;;;;;;;25.04;45.51;101352.97;4956699;28;20067;-80
2022/05/17 11:07:54;;;;;;;8.43;4.35;;;;;;;25.56;45.04;101347.59;4972444;28;20067;-81
2022/05/17 11:10:31;;;;;;;9.02;4.70;;;;;;;25.64;44.14;101347.25;4964817;28;20043;-81
2022/05/17 11:13:14;;;;;;;10.30;4.68;;;;;;;24.36;45.33;101340.91;4968782;28;20051;-84
2022/05/17 11:15:47;;;;;;;11.18;4.50;;;;;;;24.81;46.38;101345.72;4964044;29;20055;-79
2022/05/17 11:18:23;;;;;;;10.32;4.07;;;;;;;25.19;47.11;101347.94;4956122;29;20043;-82
2022/05/17 11:20:55;;;;;;;8.75;4.30;;;;;;;25.51;45.53;101339.50;4968472;28;20059;-80
2022/05/17 11:23:42;;;;;;;9.25;4.63;;;;;;;25.30;45.46;101344.41;4966399;28;20545;-82
2022/05/17 11:26:52;;;;;;;14.88;4.30;;;;;;;25.43;45.37;101344.16;4948047;29;20087;-80
2022/05/17 11:29:50;;;;;;;9.00;4.50;;;;;;;24.93;46.23;101335.84;4960206;29;20051;-79
2022/05/17 11:32:26;;;;;;;10.70;4.68;;;;;;;25.56;45.43;101326.16;4927640;28;20139;-82
2022/05/17 11:34:55;;;;;;;9.32;4.68;;;;;;;25.29;45.59;101340.13;4952343;29;20047;-81
2022/05/17 11:37:52;;;;;;;7.20;3.95;;;;;;;25.34;45.54;101339.41;4955122;28;20114;-82
2022/05/17 11:40:58;;;;;;;10.50;4.30;;;;;;;25.16;45.11;101337.69;4955174;29;20506;-79
2022/05/17 11:43:50;;;;;;;11.73;4.00;;;;;;;25.16;45.15;101331.50;4946083;29;20061;-82
2022/05/17 11:46:45;;;;;;;8.13;4.10;;;;;;;24.73;45.16;101321.97;4957207;29;20051;-83
2022/05/17 11:49:41;;;;;;;7.30;3.80;;;;;;;24.85;45.63;101319.31;4945713;28;20069;-83
2022/05/17 11:52:27;;;;;;;9.18;3.67;;;;;;;25.66;44.47;101318.34;4957904;28;20142;-83
2022/05/17 11:54:56;;;;;;;10.57;4.00;;;;;;;26.01;43.66;101319.00;4957673;29;20135;-83
2022/05/17 11:57:59;;;;;;;8.55;3.90;;;;;;;24.89;45.74;101312.44;4957218;28;20082;-86
2022/05/17 12:00:47;;;;;;;8.50;3.97;;;;;;;24.84;46.21;101313.13;4954714;29;20059;-82
2022/05/17 12:03:53;;;;;;;9.35;4.25;;;;;;;24.36;46.11;101308.00;4952782;28;20055;-84
2022/05/17 12:06:51;;;;;;;8.93;3.60;;;;;;;25.18;45.73;101303.44;4964542;28;20059;-85
2022/05/17 12:09:32;;;;;;;8.98;3.80;;;;;;;25.07;45.21;101294.38;4963017;28;20057;-81